sensor_id;sensor_type;location;lat;lon;timestamp;temperature;humidity
2893;DHT22;1456;51.840;12.184;2023-06-22T00:02:17;22.60;99.90
2893;DHT22;1456;51.840;12.184;2023-06-22T00:04:43;22.60;99.90
2893;DHT22;1456;51.840;12.184;2023-06-22T00:07:09;22.60;99.90
2893;DHT22;1456;51.840;12.184;2023-06-22T00:09:35;22.70;99.90
2893;DHT22;1456;51.840;12.184;2023-06-22T00:12:01;22.70;99.90
2893;DHT22;1456;51.840;12.184;2023-06-22T00:14:27;22.60;99.90
2893;DHT22;1456;51.840;12.184;2023-06-22T00:16:53;22.60;99.90
2893;DHT22;1456;51.840;12.184;2023-06-22T00:19:23;22.60;99.90
2893;DHT22;1456;51.840;12.184;2023-06-22T00:21:50;22.80;99.90
2893;DHT22;1456;51.840;12.184;2023-06-22T00:24:21;22.70;99.90
2893;DHT22;1456;51.840;12.184;2023-06-22T00:26:50;22.60;99.90
2893;DHT22;1456;51.840;12.184;2023-06-22T00:29:16;22.50;99.90
2893;DHT22;1456;51.840;12.184;2023-06-22T00:31:42;22.50;99.90
2893;DHT22;1456;51.840;12.184;2023-06-22T00:34:08;22.50;99.90
2893;DHT22;1456;51.840;12.184;2023-06-22T00:36:36;22.50;99.90
2893;DHT22;1456;51.840;12.184;2023-06-22T00:39:02;22.50;99.90
2893;DHT22;1456;51.840;12.184;2023-06-22T00:41:27;22.50;99.90
2893;DHT22;1456;51.840;12.184;2023-06-22T00:43:55;22.40;99.90
2893;DHT22;1456;51.840;12.184;2023-06-22T00:46:21;22.30;99.90
2893;DHT22;1456;51.840;12.184;2023-06-22T00:48:48;22.30;99.90
2893;DHT22;1456;51.840;12.184;2023-06-22T00:51:14;22.40;99.90
2893;DHT22;1456;51.840;12.184;2023-06-22T00:53:40;22.40;99.90
2893;DHT22;1456;51.840;12.184;2023-06-22T00:56:08;22.40;99.90
2893;DHT22;1456;51.840;12.184;2023-06-22T00:58:36;22.40;99.90
2893;DHT22;1456;51.840;12.184;2023-06-22T01:01:02;22.40;99.90
2893;DHT22;1456;51.840;12.184;2023-06-22T01:03:28;22.40;99.90
2893;DHT22;1456;51.840;12.184;2023-06-22T01:05:58;22.40;99.90
2893;DHT22;1456;51.840;12.184;2023-06-22T01:08:42;22.40;99.90
2893;DHT22;1456;51.840;12.184;2023-06-22T01:11:45;22.40;99.90
2893;DHT22;1456;51.840;12.184;2023-06-22T01:14:32;22.40;99.90
2893;DHT22;1456;51.840;12.184;2023-06-22T01:17:01;22.40;99.90
2893;DHT22;1456;51.840;12.184;2023-06-22T01:19:44;22.40;99.90
2893;DHT22;1456;51.840;12.184;2023-06-22T01:22:16;22.50;99.90
2893;DHT22;1456;51.840;12.184;2023-06-22T01:27:28;22.50;99.90
2893;DHT22;1456;51.840;12.184;2023-06-22T01:29:57;22.50;99.90
2893;DHT22;1456;51.840;12.184;2023-06-22T01:32:30;22.50;99.90
2893;DHT22;1456;51.840;12.184;2023-06-22T01:35:00;22.60;99.90
2893;DHT22;1456;51.840;12.184;2023-06-22T01:37:29;22.60;99.90
2893;DHT22;1456;51.840;12.184;2023-06-22T01:39:58;22.60;99.90
2893;DHT22;1456;51.840;12.184;2023-06-22T01:42:28;22.60;99.90
2893;DHT22;1456;51.840;12.184;2023-06-22T01:44:54;22.60;99.90
2893;DHT22;1456;51.840;12.184;2023-06-22T01:47:22;22.60;99.90
2893;DHT22;1456;51.840;12.184;2023-06-22T01:49:49;22.50;99.90
2893;DHT22;1456;51.840;12.184;2023-06-22T01:52:18;22.50;99.90
2893;DHT22;1456;51.840;12.184;2023-06-22T01:54:47;22.50;99.90
2893;DHT22;1456;51.840;12.184;2023-06-22T01:57:14;22.50;99.90
2893;DHT22;1456;51.840;12.184;2023-06-22T01:59:52;22.50;99.90
2893;DHT22;1456;51.840;12.184;2023-06-22T02:02:21;22.40;99.90
2893;DHT22;1456;51.840;12.184;2023-06-22T02:04:58;22.30;99.90
2893;DHT22;1456;51.840;12.184;2023-06-22T02:07:30;22.40;99.90
2893;DHT22;1456;51.840;12.184;2023-06-22T02:09:59;22.40;99.90
2893;DHT22;1456;51.840;12.184;2023-06-22T02:12:28;22.40;99.90
2893;DHT22;1456;51.840;12.184;2023-06-22T02:14:54;22.40;99.90
2893;DHT22;1456;51.840;12.184;2023-06-22T02:17:21;22.40;99.90
2893;DHT22;1456;51.840;12.184;2023-06-22T02:19:46;22.40;99.90
2893;DHT22;1456;51.840;12.184;2023-06-22T02:22:12;22.20;99.90
2893;DHT22;1456;51.840;12.184;2023-06-22T02:24:39;22.10;99.90
2893;DHT22;1456;51.840;12.184;2023-06-22T02:27:05;22.00;99.90
2893;DHT22;1456;51.840;12.184;2023-06-22T02:29:33;22.00;99.90
2893;DHT22;1456;51.840;12.184;2023-06-22T02:31:58;22.00;99.90
2893;DHT22;1456;51.840;12.184;2023-06-22T02:34:24;21.80;99.90
2893;DHT22;1456;51.840;12.184;2023-06-22T02:36:50;21.60;99.90
2893;DHT22;1456;51.840;12.184;2023-06-22T02:39:23;21.40;99.90
2893;DHT22;1456;51.840;12.184;2023-06-22T02:41:50;21.40;99.90
2893;DHT22;1456;51.840;12.184;2023-06-22T02:44:16;21.30;99.90
2893;DHT22;1456;51.840;12.184;2023-06-22T02:46:42;21.30;99.90
2893;DHT22;1456;51.840;12.184;2023-06-22T02:49:08;21.30;99.90
2893;DHT22;1456;51.840;12.184;2023-06-22T02:51:34;21.20;99.90
2893;DHT22;1456;51.840;12.184;2023-06-22T02:54:00;21.30;99.90
2893;DHT22;1456;51.840;12.184;2023-06-22T02:59:48;21.20;99.90
2893;DHT22;1456;51.840;12.184;2023-06-22T03:02:13;21.10;99.90
2893;DHT22;1456;51.840;12.184;2023-06-22T03:04:39;21.00;99.90
2893;DHT22;1456;51.840;12.184;2023-06-22T03:07:05;20.90;99.90
2893;DHT22;1456;51.840;12.184;2023-06-22T03:09:31;20.70;99.90
2893;DHT22;1456;51.840;12.184;2023-06-22T03:11:56;20.70;99.90
2893;DHT22;1456;51.840;12.184;2023-06-22T03:14:22;20.70;99.90
2893;DHT22;1456;51.840;12.184;2023-06-22T03:16:50;20.60;99.90
2893;DHT22;1456;51.840;12.184;2023-06-22T03:19:15;20.60;99.90
2893;DHT22;1456;51.840;12.184;2023-06-22T03:21:43;20.70;99.90
2893;DHT22;1456;51.840;12.184;2023-06-22T03:24:08;20.80;99.90
2893;DHT22;1456;51.840;12.184;2023-06-22T03:26:34;20.90;99.90
2893;DHT22;1456;51.840;12.184;2023-06-22T03:29:01;21.00;99.90
2893;DHT22;1456;51.840;12.184;2023-06-22T03:31:28;21.20;99.90
2893;DHT22;1456;51.840;12.184;2023-06-22T03:33:53;21.20;99.90
2893;DHT22;1456;51.840;12.184;2023-06-22T03:36:20;21.20;99.90
2893;DHT22;1456;51.840;12.184;2023-06-22T03:38:48;21.30;99.90
2893;DHT22;1456;51.840;12.184;2023-06-22T03:41:14;21.30;99.90
2893;DHT22;1456;51.840;12.184;2023-06-22T03:43:40;21.50;99.90
2893;DHT22;1456;51.840;12.184;2023-06-22T03:46:06;21.60;99.90
2893;DHT22;1456;51.840;12.184;2023-06-22T03:48:33;21.80;99.90
2893;DHT22;1456;51.840;12.184;2023-06-22T03:51:00;21.90;99.90
2893;DHT22;1456;51.840;12.184;2023-06-22T03:53:27;22.10;99.90
2893;DHT22;1456;51.840;12.184;2023-06-22T03:55:53;22.00;99.90
2893;DHT22;1456;51.840;12.184;2023-06-22T03:58:20;22.00;99.90
2893;DHT22;1456;51.840;12.184;2023-06-22T04:00:48;22.10;99.90
2893;DHT22;1456;51.840;12.184;2023-06-22T04:03:14;22.10;99.90
2893;DHT22;1456;51.840;12.184;2023-06-22T04:05:40;22.30;99.90
2893;DHT22;1456;51.840;12.184;2023-06-22T04:08:06;22.50;99.90
2893;DHT22;1456;51.840;12.184;2023-06-22T04:10:32;22.70;99.90
2893;DHT22;1456;51.840;12.184;2023-06-22T04:12:57;22.90;99.90
2893;DHT22;1456;51.840;12.184;2023-06-22T04:15:24;23.10;99.90
2893;DHT22;1456;51.840;12.184;2023-06-22T04:17:50;23.30;99.90
2893;DHT22;1456;51.840;12.184;2023-06-22T04:20:15;23.40;99.90
2893;DHT22;1456;51.840;12.184;2023-06-22T04:22:41;23.50;99.90
2893;DHT22;1456;51.840;12.184;2023-06-22T04:25:07;23.50;99.90
2893;DHT22;1456;51.840;12.184;2023-06-22T04:27:34;23.60;99.90
2893;DHT22;1456;51.840;12.184;2023-06-22T04:30:06;23.70;99.90
2893;DHT22;1456;51.840;12.184;2023-06-22T04:32:33;23.70;99.90
2893;DHT22;1456;51.840;12.184;2023-06-22T04:34:58;23.80;99.90
2893;DHT22;1456;51.840;12.184;2023-06-22T04:37:26;23.80;99.90
2893;DHT22;1456;51.840;12.184;2023-06-22T04:39:51;23.80;99.90
2893;DHT22;1456;51.840;12.184;2023-06-22T04:42:18;23.90;99.90
2893;DHT22;1456;51.840;12.184;2023-06-22T04:44:44;24.00;99.90
2893;DHT22;1456;51.840;12.184;2023-06-22T04:47:09;24.10;99.90
2893;DHT22;1456;51.840;12.184;2023-06-22T04:49:36;24.20;99.90
2893;DHT22;1456;51.840;12.184;2023-06-22T04:52:07;24.30;99.90
2893;DHT22;1456;51.840;12.184;2023-06-22T04:54:33;24.20;99.90
2893;DHT22;1456;51.840;12.184;2023-06-22T04:57:03;24.20;99.90
2893;DHT22;1456;51.840;12.184;2023-06-22T04:59:31;24.40;99.90
2893;DHT22;1456;51.840;12.184;2023-06-22T05:01:58;24.70;99.90
2893;DHT22;1456;51.840;12.184;2023-06-22T05:04:26;24.90;99.90
2893;DHT22;1456;51.840;12.184;2023-06-22T05:06:54;25.00;99.90
2893;DHT22;1456;51.840;12.184;2023-06-22T05:09:20;25.00;99.90
2893;DHT22;1456;51.840;12.184;2023-06-22T05:11:47;25.00;99.90
2893;DHT22;1456;51.840;12.184;2023-06-22T05:14:13;25.10;99.90
2893;DHT22;1456;51.840;12.184;2023-06-22T05:16:41;25.10;99.90
2893;DHT22;1456;51.840;12.184;2023-06-22T05:19:07;25.00;99.90
2893;DHT22;1456;51.840;12.184;2023-06-22T05:21:33;25.10;99.90
2893;DHT22;1456;51.840;12.184;2023-06-22T05:23:59;25.30;99.90
2893;DHT22;1456;51.840;12.184;2023-06-22T05:26:32;25.50;99.90
2893;DHT22;1456;51.840;12.184;2023-06-22T05:29:00;25.50;99.90
2893;DHT22;1456;51.840;12.184;2023-06-22T05:31:29;25.80;99.90
2893;DHT22;1456;51.840;12.184;2023-06-22T05:33:56;26.00;99.90
2893;DHT22;1456;51.840;12.184;2023-06-22T05:36:22;26.00;99.90
2893;DHT22;1456;51.840;12.184;2023-06-22T05:38:53;25.80;99.90
2893;DHT22;1456;51.840;12.184;2023-06-22T05:41:21;25.70;99.90
2893;DHT22;1456;51.840;12.184;2023-06-22T05:43:47;25.70;99.90
2893;DHT22;1456;51.840;12.184;2023-06-22T05:46:13;25.70;99.90
2893;DHT22;1456;51.840;12.184;2023-06-22T05:48:39;25.50;99.90
2893;DHT22;1456;51.840;12.184;2023-06-22T05:51:05;25.50;99.90
2893;DHT22;1456;51.840;12.184;2023-06-22T05:53:31;25.40;99.90
2893;DHT22;1456;51.840;12.184;2023-06-22T05:55:57;25.30;99.90
2893;DHT22;1456;51.840;12.184;2023-06-22T05:58:23;25.00;99.90
2893;DHT22;1456;51.840;12.184;2023-06-22T06:00:49;25.10;99.90
2893;DHT22;1456;51.840;12.184;2023-06-22T06:03:14;25.10;99.90
2893;DHT22;1456;51.840;12.184;2023-06-22T06:05:42;25.20;99.90
2893;DHT22;1456;51.840;12.184;2023-06-22T06:08:09;25.10;99.90
2893;DHT22;1456;51.840;12.184;2023-06-22T06:10:36;25.30;99.90
2893;DHT22;1456;51.840;12.184;2023-06-22T06:13:03;25.30;99.90
2893;DHT22;1456;51.840;12.184;2023-06-22T06:15:31;25.30;99.90
2893;DHT22;1456;51.840;12.184;2023-06-22T06:17:58;25.30;99.90
2893;DHT22;1456;51.840;12.184;2023-06-22T06:20:26;25.80;99.90
2893;DHT22;1456;51.840;12.184;2023-06-22T06:22:53;25.80;99.90
2893;DHT22;1456;51.840;12.184;2023-06-22T06:25:18;26.10;99.90
2893;DHT22;1456;51.840;12.184;2023-06-22T06:27:49;26.40;99.90
2893;DHT22;1456;51.840;12.184;2023-06-22T06:30:18;26.70;99.90
2893;DHT22;1456;51.840;12.184;2023-06-22T06:32:45;27.00;99.90
2893;DHT22;1456;51.840;12.184;2023-06-22T06:35:13;27.20;99.90
2893;DHT22;1456;51.840;12.184;2023-06-22T06:37:41;27.30;99.90
2893;DHT22;1456;51.840;12.184;2023-06-22T06:40:08;27.40;99.90
2893;DHT22;1456;51.840;12.184;2023-06-22T06:42:39;27.40;99.90
2893;DHT22;1456;51.840;12.184;2023-06-22T06:45:08;27.50;99.90
2893;DHT22;1456;51.840;12.184;2023-06-22T06:47:34;27.50;99.90
2893;DHT22;1456;51.840;12.184;2023-06-22T06:49:59;27.40;99.90
2893;DHT22;1456;51.840;12.184;2023-06-22T06:52:25;27.40;99.90
2893;DHT22;1456;51.840;12.184;2023-06-22T06:54:52;27.30;99.90
2893;DHT22;1456;51.840;12.184;2023-06-22T06:57:20;27.30;99.90
2893;DHT22;1456;51.840;12.184;2023-06-22T06:59:48;27.20;99.90
2893;DHT22;1456;51.840;12.184;2023-06-22T07:02:14;26.90;99.90
2893;DHT22;1456;51.840;12.184;2023-06-22T07:04:40;27.10;99.90
2893;DHT22;1456;51.840;12.184;2023-06-22T07:07:05;27.10;99.90
2893;DHT22;1456;51.840;12.184;2023-06-22T07:09:32;27.10;99.90
2893;DHT22;1456;51.840;12.184;2023-06-22T07:11:58;27.20;99.90
2893;DHT22;1456;51.840;12.184;2023-06-22T07:14:23;27.40;99.90
2893;DHT22;1456;51.840;12.184;2023-06-22T07:16:49;27.30;99.90
2893;DHT22;1456;51.840;12.184;2023-06-22T07:19:15;27.50;99.90
2893;DHT22;1456;51.840;12.184;2023-06-22T07:21:41;27.60;99.60
2893;DHT22;1456;51.840;12.184;2023-06-22T07:24:07;27.60;99.90
2893;DHT22;1456;51.840;12.184;2023-06-22T07:26:33;27.90;99.90
2893;DHT22;1456;51.840;12.184;2023-06-22T07:28:59;28.10;99.50
2893;DHT22;1456;51.840;12.184;2023-06-22T07:31:25;28.30;99.50
2893;DHT22;1456;51.840;12.184;2023-06-22T07:33:52;28.60;99.00
2893;DHT22;1456;51.840;12.184;2023-06-22T07:36:18;28.60;98.30
2893;DHT22;1456;51.840;12.184;2023-06-22T07:38:43;28.40;98.40
2893;DHT22;1456;51.840;12.184;2023-06-22T07:41:09;28.50;99.30
2893;DHT22;1456;51.840;12.184;2023-06-22T07:43:35;28.60;98.60
2893;DHT22;1456;51.840;12.184;2023-06-22T07:46:03;28.60;99.00
2893;DHT22;1456;51.840;12.184;2023-06-22T07:48:29;28.70;98.30
2893;DHT22;1456;51.840;12.184;2023-06-22T07:50:55;28.70;98.40
2893;DHT22;1456;51.840;12.184;2023-06-22T07:53:21;28.80;99.30
2893;DHT22;1456;51.840;12.184;2023-06-22T07:55:47;28.80;98.20
2893;DHT22;1456;51.840;12.184;2023-06-22T07:58:13;28.90;97.70
2893;DHT22;1456;51.840;12.184;2023-06-22T08:00:39;29.10;97.90
2893;DHT22;1456;51.840;12.184;2023-06-22T08:03:04;29.00;97.50
2893;DHT22;1456;51.840;12.184;2023-06-22T08:05:31;29.10;97.90
2893;DHT22;1456;51.840;12.184;2023-06-22T08:07:57;29.40;98.40
2893;DHT22;1456;51.840;12.184;2023-06-22T08:10:23;29.50;97.40
2893;DHT22;1456;51.840;12.184;2023-06-22T08:12:48;29.70;97.00
2893;DHT22;1456;51.840;12.184;2023-06-22T08:15:14;29.90;96.90
2893;DHT22;1456;51.840;12.184;2023-06-22T08:17:40;30.10;96.50
2893;DHT22;1456;51.840;12.184;2023-06-22T08:20:07;30.20;96.00
2893;DHT22;1456;51.840;12.184;2023-06-22T08:22:37;30.20;95.70
2893;DHT22;1456;51.840;12.184;2023-06-22T08:25:05;30.30;96.50
2893;DHT22;1456;51.840;12.184;2023-06-22T08:27:31;30.20;95.60
2893;DHT22;1456;51.840;12.184;2023-06-22T08:29:59;30.10;95.80
2893;DHT22;1456;51.840;12.184;2023-06-22T08:32:27;30.10;95.20
2893;DHT22;1456;51.840;12.184;2023-06-22T08:34:57;29.80;95.30
2893;DHT22;1456;51.840;12.184;2023-06-22T08:37:23;30.00;95.60
2893;DHT22;1456;51.840;12.184;2023-06-22T08:39:51;30.30;96.00
2893;DHT22;1456;51.840;12.184;2023-06-22T08:42:17;30.70;96.00
2893;DHT22;1456;51.840;12.184;2023-06-22T08:44:42;30.90;95.60
2893;DHT22;1456;51.840;12.184;2023-06-22T08:47:08;31.40;94.20
2893;DHT22;1456;51.840;12.184;2023-06-22T08:49:33;31.60;94.80
2893;DHT22;1456;51.840;12.184;2023-06-22T08:52:00;31.90;93.60
2893;DHT22;1456;51.840;12.184;2023-06-22T08:54:28;31.90;94.10
2893;DHT22;1456;51.840;12.184;2023-06-22T08:56:53;32.50;94.30
2893;DHT22;1456;51.840;12.184;2023-06-22T08:59:21;32.90;93.10
2893;DHT22;1456;51.840;12.184;2023-06-22T09:01:46;33.00;92.50
2893;DHT22;1456;51.840;12.184;2023-06-22T09:04:15;32.90;92.10
2893;DHT22;1456;51.840;12.184;2023-06-22T09:06:42;33.20;92.70
2893;DHT22;1456;51.840;12.184;2023-06-22T09:09:13;33.40;93.10
2893;DHT22;1456;51.840;12.184;2023-06-22T09:11:39;33.50;92.20
2893;DHT22;1456;51.840;12.184;2023-06-22T09:14:06;33.60;92.00
2893;DHT22;1456;51.840;12.184;2023-06-22T09:16:34;33.80;91.70
2893;DHT22;1456;51.840;12.184;2023-06-22T09:18:59;34.10;91.70
2893;DHT22;1456;51.840;12.184;2023-06-22T09:21:25;34.30;91.00
2893;DHT22;1456;51.840;12.184;2023-06-22T09:23:51;34.00;89.80
2893;DHT22;1456;51.840;12.184;2023-06-22T09:26:17;33.50;90.60
2893;DHT22;1456;51.840;12.184;2023-06-22T09:28:43;33.50;88.30
2893;DHT22;1456;51.840;12.184;2023-06-22T09:31:13;33.40;90.20
2893;DHT22;1456;51.840;12.184;2023-06-22T09:33:40;33.50;90.80
2893;DHT22;1456;51.840;12.184;2023-06-22T09:36:06;33.90;90.80
2893;DHT22;1456;51.840;12.184;2023-06-22T09:38:39;34.30;90.50
2893;DHT22;1456;51.840;12.184;2023-06-22T09:41:06;34.20;88.40
2893;DHT22;1456;51.840;12.184;2023-06-22T09:43:32;34.50;90.00
2893;DHT22;1456;51.840;12.184;2023-06-22T09:46:01;34.80;90.30
2893;DHT22;1456;51.840;12.184;2023-06-22T09:48:27;35.30;88.60
2893;DHT22;1456;51.840;12.184;2023-06-22T09:50:54;35.50;87.00
2893;DHT22;1456;51.840;12.184;2023-06-22T09:53:20;35.60;86.00
2893;DHT22;1456;51.840;12.184;2023-06-22T09:55:45;35.50;83.10
2893;DHT22;1456;51.840;12.184;2023-06-22T09:58:11;35.50;84.70
2893;DHT22;1456;51.840;12.184;2023-06-22T10:00:37;35.80;84.10
2893;DHT22;1456;51.840;12.184;2023-06-22T10:03:02;35.90;81.20
2893;DHT22;1456;51.840;12.184;2023-06-22T10:05:29;36.00;80.10
2893;DHT22;1456;51.840;12.184;2023-06-22T10:07:57;35.90;80.80
2893;DHT22;1456;51.840;12.184;2023-06-22T10:10:24;36.10;82.10
2893;DHT22;1456;51.840;12.184;2023-06-22T10:13:01;36.20;80.30
2893;DHT22;1456;51.840;12.184;2023-06-22T10:15:28;36.60;79.10
2893;DHT22;1456;51.840;12.184;2023-06-22T10:17:54;37.00;79.60
2893;DHT22;1456;51.840;12.184;2023-06-22T10:20:23;37.70;77.90
2893;DHT22;1456;51.840;12.184;2023-06-22T10:22:49;37.60;71.80
2893;DHT22;1456;51.840;12.184;2023-06-22T10:25:17;37.80;73.20
2893;DHT22;1456;51.840;12.184;2023-06-22T10:27:43;38.50;75.80
2893;DHT22;1456;51.840;12.184;2023-06-22T10:30:10;38.90;71.60
2893;DHT22;1456;51.840;12.184;2023-06-22T10:32:39;38.80;69.70
2893;DHT22;1456;51.840;12.184;2023-06-22T10:35:05;37.90;72.20
2893;DHT22;1456;51.840;12.184;2023-06-22T10:37:31;37.70;73.00
2893;DHT22;1456;51.840;12.184;2023-06-22T10:39:57;37.90;69.30
2893;DHT22;1456;51.840;12.184;2023-06-22T10:42:23;38.10;69.40
2893;DHT22;1456;51.840;12.184;2023-06-22T10:44:49;38.10;67.80
2893;DHT22;1456;51.840;12.184;2023-06-22T10:47:16;39.00;68.60
2893;DHT22;1456;51.840;12.184;2023-06-22T10:49:42;39.20;67.60
2893;DHT22;1456;51.840;12.184;2023-06-22T10:52:08;39.10;66.20
2893;DHT22;1456;51.840;12.184;2023-06-22T10:54:37;39.30;63.80
2893;DHT22;1456;51.840;12.184;2023-06-22T10:57:06;39.80;66.00
2893;DHT22;1456;51.840;12.184;2023-06-22T10:59:32;40.00;62.80
2893;DHT22;1456;51.840;12.184;2023-06-22T11:01:58;39.80;64.00
2893;DHT22;1456;51.840;12.184;2023-06-22T11:04:24;40.00;65.00
2893;DHT22;1456;51.840;12.184;2023-06-22T11:06:50;39.80;61.90
2893;DHT22;1456;51.840;12.184;2023-06-22T11:09:16;39.70;62.30
2893;DHT22;1456;51.840;12.184;2023-06-22T11:11:49;40.50;63.50
2893;DHT22;1456;51.840;12.184;2023-06-22T11:14:15;40.90;61.70
2893;DHT22;1456;51.840;12.184;2023-06-22T11:16:41;41.10;59.80
2893;DHT22;1456;51.840;12.184;2023-06-22T11:19:10;41.70;61.20
2893;DHT22;1456;51.840;12.184;2023-06-22T11:21:35;41.70;57.10
2893;DHT22;1456;51.840;12.184;2023-06-22T11:24:02;41.90;57.50
2893;DHT22;1456;51.840;12.184;2023-06-22T11:26:28;41.70;58.00
2893;DHT22;1456;51.840;12.184;2023-06-22T11:28:53;41.50;56.30
2893;DHT22;1456;51.840;12.184;2023-06-22T11:31:21;41.30;57.00
2893;DHT22;1456;51.840;12.184;2023-06-22T11:33:48;41.50;57.60
2893;DHT22;1456;51.840;12.184;2023-06-22T11:36:14;42.20;56.70
2893;DHT22;1456;51.840;12.184;2023-06-22T11:38:42;42.70;56.20
2893;DHT22;1456;51.840;12.184;2023-06-22T11:41:09;42.70;55.80
2893;DHT22;1456;51.840;12.184;2023-06-22T11:43:35;42.70;54.40
2893;DHT22;1456;51.840;12.184;2023-06-22T11:46:03;42.60;55.00
2893;DHT22;1456;51.840;12.184;2023-06-22T11:48:29;42.30;53.70
2893;DHT22;1456;51.840;12.184;2023-06-22T11:50:55;42.50;53.50
2893;DHT22;1456;51.840;12.184;2023-06-22T11:53:26;42.90;54.80
2893;DHT22;1456;51.840;12.184;2023-06-22T11:55:52;42.90;53.20
2893;DHT22;1456;51.840;12.184;2023-06-22T11:58:19;42.10;52.30
2893;DHT22;1456;51.840;12.184;2023-06-22T12:00:45;41.50;53.60
2893;DHT22;1456;51.840;12.184;2023-06-22T12:03:10;41.10;54.10
2893;DHT22;1456;51.840;12.184;2023-06-22T12:05:38;41.40;54.40
2893;DHT22;1456;51.840;12.184;2023-06-22T12:08:03;42.00;54.00
2893;DHT22;1456;51.840;12.184;2023-06-22T12:10:30;42.80;54.40
2893;DHT22;1456;51.840;12.184;2023-06-22T12:12:56;43.70;53.60
2893;DHT22;1456;51.840;12.184;2023-06-22T12:15:24;44.40;51.30
2893;DHT22;1456;51.840;12.184;2023-06-22T12:17:50;44.90;51.00
2893;DHT22;1456;51.840;12.184;2023-06-22T12:20:16;44.00;50.10
2893;DHT22;1456;51.840;12.184;2023-06-22T12:22:42;43.40;52.10
2893;DHT22;1456;51.840;12.184;2023-06-22T12:25:08;43.10;50.70
2893;DHT22;1456;51.840;12.184;2023-06-22T12:27:38;42.70;49.70
2893;DHT22;1456;51.840;12.184;2023-06-22T12:30:04;42.30;51.60
2893;DHT22;1456;51.840;12.184;2023-06-22T12:32:31;42.30;52.40
2893;DHT22;1456;51.840;12.184;2023-06-22T12:34:57;42.40;51.70
2893;DHT22;1456;51.840;12.184;2023-06-22T12:37:23;42.10;50.10
2893;DHT22;1456;51.840;12.184;2023-06-22T12:39:49;42.30;50.70
2893;DHT22;1456;51.840;12.184;2023-06-22T12:42:15;41.50;50.40
2893;DHT22;1456;51.840;12.184;2023-06-22T12:44:41;41.50;52.20
2893;DHT22;1456;51.840;12.184;2023-06-22T12:47:07;41.80;51.10
2893;DHT22;1456;51.840;12.184;2023-06-22T12:49:34;42.00;51.80
2893;DHT22;1456;51.840;12.184;2023-06-22T12:52:00;43.30;50.90
2893;DHT22;1456;51.840;12.184;2023-06-22T12:54:26;43.30;48.40
2893;DHT22;1456;51.840;12.184;2023-06-22T12:56:54;44.00;49.70
2893;DHT22;1456;51.840;12.184;2023-06-22T12:59:19;44.50;49.00
2893;DHT22;1456;51.840;12.184;2023-06-22T13:01:45;45.20;49.10
2893;DHT22;1456;51.840;12.184;2023-06-22T13:04:14;44.80;49.00
2893;DHT22;1456;51.840;12.184;2023-06-22T13:06:44;44.70;47.20
2893;DHT22;1456;51.840;12.184;2023-06-22T13:09:14;42.70;48.50
2893;DHT22;1456;51.840;12.184;2023-06-22T13:11:42;41.40;48.90
2893;DHT22;1456;51.840;12.184;2023-06-22T13:14:09;41.60;50.70
2893;DHT22;1456;51.840;12.184;2023-06-22T13:16:35;42.40;50.00
2893;DHT22;1456;51.840;12.184;2023-06-22T13:19:01;43.20;49.90
2893;DHT22;1456;51.840;12.184;2023-06-22T13:21:27;43.70;47.70
2893;DHT22;1456;51.840;12.184;2023-06-22T13:23:53;44.70;48.20
2893;DHT22;1456;51.840;12.184;2023-06-22T13:26:21;45.20;48.40
2893;DHT22;1456;51.840;12.184;2023-06-22T13:28:48;45.60;47.40
2893;DHT22;1456;51.840;12.184;2023-06-22T13:31:15;46.30;46.90
2893;DHT22;1456;51.840;12.184;2023-06-22T13:33:40;46.70;46.40
2893;DHT22;1456;51.840;12.184;2023-06-22T13:36:07;47.00;45.60
2893;DHT22;1456;51.840;12.184;2023-06-22T13:38:37;46.70;46.00
2893;DHT22;1456;51.840;12.184;2023-06-22T13:41:04;45.60;45.20
2893;DHT22;1456;51.840;12.184;2023-06-22T13:43:32;45.30;45.60
2893;DHT22;1456;51.840;12.184;2023-06-22T13:45:57;45.80;46.60
2893;DHT22;1456;51.840;12.184;2023-06-22T13:48:23;46.60;44.30
2893;DHT22;1456;51.840;12.184;2023-06-22T13:50:51;47.20;44.60
2893;DHT22;1456;51.840;12.184;2023-06-22T13:53:18;47.50;44.90
2893;DHT22;1456;51.840;12.184;2023-06-22T13:55:44;47.10;43.90
2893;DHT22;1456;51.840;12.184;2023-06-22T13:58:13;47.30;42.90
2893;DHT22;1456;51.840;12.184;2023-06-22T14:00:38;47.50;43.50
2893;DHT22;1456;51.840;12.184;2023-06-22T14:03:06;48.30;43.30
2893;DHT22;1456;51.840;12.184;2023-06-22T14:05:31;49.30;43.10
2893;DHT22;1456;51.840;12.184;2023-06-22T14:07:58;49.20;41.80
2893;DHT22;1456;51.840;12.184;2023-06-22T14:10:24;48.30;40.80
2893;DHT22;1456;51.840;12.184;2023-06-22T14:12:51;48.20;41.90
2893;DHT22;1456;51.840;12.184;2023-06-22T14:15:18;48.20;41.50
2893;DHT22;1456;51.840;12.184;2023-06-22T14:17:44;47.90;40.50
2893;DHT22;1456;51.840;12.184;2023-06-22T14:20:10;47.00;41.50
2893;DHT22;1456;51.840;12.184;2023-06-22T14:22:36;47.00;42.10
2893;DHT22;1456;51.840;12.184;2023-06-22T14:25:02;47.30;42.00
2893;DHT22;1456;51.840;12.184;2023-06-22T14:27:27;47.90;41.10
2893;DHT22;1456;51.840;12.184;2023-06-22T14:29:53;48.20;40.70
2893;DHT22;1456;51.840;12.184;2023-06-22T14:32:19;47.40;41.50
2893;DHT22;1456;51.840;12.184;2023-06-22T14:34:44;46.10;40.90
2893;DHT22;1456;51.840;12.184;2023-06-22T14:37:10;45.00;42.50
2893;DHT22;1456;51.840;12.184;2023-06-22T14:39:36;44.50;43.10
2893;DHT22;1456;51.840;12.184;2023-06-22T14:42:02;44.00;43.20
2893;DHT22;1456;51.840;12.184;2023-06-22T14:44:33;44.10;42.30
2893;DHT22;1456;51.840;12.184;2023-06-22T14:46:59;44.60;43.90
2893;DHT22;1456;51.840;12.184;2023-06-22T14:49:25;44.80;42.40
2893;DHT22;1456;51.840;12.184;2023-06-22T14:51:50;43.70;42.90
2893;DHT22;1456;51.840;12.184;2023-06-22T14:54:17;42.10;44.20
2893;DHT22;1456;51.840;12.184;2023-06-22T14:56:43;41.10;45.30
2893;DHT22;1456;51.840;12.184;2023-06-22T14:59:09;40.30;45.80
2893;DHT22;1456;51.840;12.184;2023-06-22T15:01:37;39.40;46.20
2893;DHT22;1456;51.840;12.184;2023-06-22T15:04:04;38.80;46.00
2893;DHT22;1456;51.840;12.184;2023-06-22T15:06:31;38.40;47.10
2893;DHT22;1456;51.840;12.184;2023-06-22T15:08:57;38.30;47.40
2893;DHT22;1456;51.840;12.184;2023-06-22T15:11:22;38.20;47.90
2893;DHT22;1456;51.840;12.184;2023-06-22T15:13:48;37.70;48.30
2893;DHT22;1456;51.840;12.184;2023-06-22T15:16:14;37.50;48.90
2893;DHT22;1456;51.840;12.184;2023-06-22T15:18:41;37.30;48.50
2893;DHT22;1456;51.840;12.184;2023-06-22T15:21:08;36.90;50.00
2893;DHT22;1456;51.840;12.184;2023-06-22T15:23:34;36.50;49.60
2893;DHT22;1456;51.840;12.184;2023-06-22T15:26:03;35.90;50.90
2893;DHT22;1456;51.840;12.184;2023-06-22T15:28:30;35.60;51.20
2893;DHT22;1456;51.840;12.184;2023-06-22T15:30:57;35.30;50.50
2893;DHT22;1456;51.840;12.184;2023-06-22T15:33:24;35.30;50.90
2893;DHT22;1456;51.840;12.184;2023-06-22T15:35:52;35.30;51.10
2893;DHT22;1456;51.840;12.184;2023-06-22T15:38:18;35.40;51.50
2893;DHT22;1456;51.840;12.184;2023-06-22T15:40:45;35.80;51.30
2893;DHT22;1456;51.840;12.184;2023-06-22T15:43:11;37.10;51.70
2893;DHT22;1456;51.840;12.184;2023-06-22T15:45:38;38.70;50.60
2893;DHT22;1456;51.840;12.184;2023-06-22T15:48:04;39.80;48.10
2893;DHT22;1456;51.840;12.184;2023-06-22T15:50:29;39.70;49.10